createdAt,value
2023-03-26T00:02:00.138Z,0.70
2023-03-26T00:04:30.446Z,0.45
2023-03-26T00:07:01.083Z,0.68
2023-03-26T00:09:31.615Z,0.82
2023-03-26T00:12:02.104Z,0.60
2023-03-26T00:14:32.428Z,0.50
2023-03-26T00:17:03.226Z,0.80
2023-03-26T00:19:34.395Z,0.70
2023-03-26T00:22:05.517Z,1.10
2023-03-26T00:24:39.669Z,0.80
2023-03-26T00:27:10.532Z,0.65
2023-03-26T00:29:41.665Z,0.70
2023-03-26T00:32:12.446Z,0.70
2023-03-26T00:34:43.139Z,0.57
2023-03-26T00:37:14.592Z,0.55
2023-03-26T00:39:46.735Z,0.60
2023-03-26T00:42:17.485Z,0.60
2023-03-26T00:44:47.887Z,0.73
2023-03-26T00:47:18.546Z,0.50
2023-03-26T00:49:50.539Z,1.35
2023-03-26T00:52:21.655Z,0.82
2023-03-26T00:54:54.388Z,0.80
2023-03-26T00:57:34.888Z,1.15
2023-03-26T01:00:18.483Z,1.10
2023-03-26T01:02:48.855Z,0.52
2023-03-26T01:05:50.561Z,0.70
2023-03-26T01:08:51.031Z,0.68
2023-03-26T01:11:29.734Z,0.68
2023-03-26T01:14:13.837Z,0.93
2023-03-26T01:16:57.064Z,1.27
2023-03-26T01:19:46.887Z,1.40
2023-03-26T01:22:25.103Z,0.80
2023-03-26T01:24:58.477Z,0.90
2023-03-26T01:27:43.081Z,1.00
2023-03-26T01:30:25.406Z,0.88
2023-03-26T01:33:06.145Z,0.80
2023-03-26T01:35:43.063Z,1.10
2023-03-26T01:38:27.958Z,1.23
2023-03-26T01:41:16.854Z,1.23
2023-03-26T01:44:18.252Z,0.98
2023-03-26T01:46:49.418Z,1.20
2023-03-26T01:49:21.597Z,1.40
2023-03-26T01:51:53.045Z,1.17
2023-03-26T01:54:28.494Z,1.42
2023-03-26T01:57:18.215Z,1.35
2023-03-26T02:00:08.841Z,1.20
2023-03-26T02:02:48.642Z,1.35
2023-03-26T02:05:31.092Z,1.17
2023-03-26T02:08:37.175Z,1.33
2023-03-26T02:11:16.011Z,1.33
2023-03-26T02:13:49.405Z,1.40
2023-03-26T02:16:22.206Z,1.00
2023-03-26T02:18:57.416Z,1.05
2023-03-26T02:21:29.949Z,1.73
2023-03-26T02:24:10.515Z,1.20
2023-03-26T02:26:40.832Z,0.88
2023-03-26T02:29:12.244Z,1.20
2023-03-26T02:31:42.654Z,1.23
2023-03-26T02:34:13.018Z,0.90
2023-03-26T02:36:45.800Z,1.05
2023-03-26T02:39:16.289Z,1.00
2023-03-26T02:41:47.048Z,1.40
2023-03-26T02:44:17.386Z,1.48
2023-03-26T02:46:48.061Z,0.77
2023-03-26T02:49:19.757Z,1.08
2023-03-26T02:51:50.500Z,1.10
2023-03-26T02:54:22.132Z,1.27
2023-03-26T02:56:52.537Z,0.98
2023-03-26T02:59:23.105Z,1.35
2023-03-26T03:01:53.347Z,0.95
2023-03-26T03:04:23.623Z,1.77
2023-03-26T03:06:59.144Z,1.30
2023-03-26T03:09:29.543Z,1.33
2023-03-26T03:12:00.956Z,1.23
2023-03-26T03:14:33.309Z,1.58
2023-03-26T03:17:04.235Z,1.27
2023-03-26T03:19:34.633Z,1.58
2023-03-26T03:22:04.875Z,1.15
2023-03-26T03:24:35.769Z,1.48
2023-03-26T03:27:06.421Z,1.05
2023-03-26T03:29:37.267Z,1.30
2023-03-26T03:32:08.408Z,1.10
2023-03-26T03:34:40.693Z,1.50
2023-03-26T03:37:11.181Z,0.95
2023-03-26T03:39:44.693Z,1.20
2023-03-26T03:42:16.821Z,0.98
2023-03-26T03:44:48.047Z,1.05
2023-03-26T03:47:18.422Z,1.00
2023-03-26T03:49:48.675Z,1.67
2023-03-26T03:52:19.838Z,1.10
2023-03-26T03:54:50.246Z,1.33
2023-03-26T03:57:23.609Z,1.10
2023-03-26T03:59:53.906Z,1.25
2023-03-26T04:02:36.206Z,1.48
2023-03-26T04:05:08.085Z,1.67
2023-03-26T04:07:38.517Z,1.67
2023-03-26T04:10:11.431Z,1.40
2023-03-26T04:12:41.843Z,1.35
2023-03-26T04:15:12.397Z,1.60
2023-03-26T04:17:46.662Z,1.40
2023-03-26T04:20:18.915Z,1.23
2023-03-26T04:22:49.288Z,1.27
2023-03-26T04:25:19.884Z,1.80
2023-03-26T04:27:50.852Z,1.55
2023-03-26T04:30:22.525Z,1.85
2023-03-26T04:32:53.435Z,1.65
2023-03-26T04:35:25.354Z,1.50
2023-03-26T04:37:56.123Z,1.60
2023-03-26T04:40:26.471Z,1.20
2023-03-26T04:43:00.045Z,2.08
2023-03-26T04:45:32.045Z,1.45
2023-03-26T04:48:02.553Z,1.67
2023-03-26T04:50:32.896Z,1.70
2023-03-26T04:53:04.133Z,1.20
2023-03-26T04:56:16.045Z,1.45
2023-03-26T04:58:46.409Z,1.40
2023-03-26T05:01:18.768Z,1.10
2023-03-26T05:03:49.232Z,0.90
2023-03-26T05:06:20.957Z,1.33
2023-03-26T05:08:51.280Z,1.63
2023-03-26T05:11:21.568Z,1.17
2023-03-26T05:13:52.180Z,1.45
2023-03-26T05:16:24.132Z,1.25
2023-03-26T05:18:56.142Z,1.40
2023-03-26T05:21:26.529Z,1.60
2023-03-26T05:23:57.086Z,1.40
2023-03-26T05:26:27.780Z,1.20
2023-03-26T05:28:58.589Z,1.38
2023-03-26T05:31:32.772Z,1.13
2023-03-26T05:34:03.296Z,1.13
2023-03-26T05:36:34.358Z,1.13
2023-03-26T05:39:04.973Z,1.20
2023-03-26T05:41:35.495Z,1.40
2023-03-26T05:44:06.215Z,1.63
2023-03-26T05:46:36.942Z,1.60
2023-03-26T05:49:07.395Z,1.35
2023-03-26T05:51:38.183Z,1.30
2023-03-26T05:54:09.110Z,1.50
2023-03-26T05:56:40.088Z,2.03
2023-03-26T05:59:11.041Z,1.75
2023-03-26T06:01:46.054Z,1.33
2023-03-26T06:04:18.164Z,1.30
2023-03-26T06:06:49.460Z,1.65
2023-03-26T06:09:20.753Z,1.80
2023-03-26T06:11:51.521Z,1.40
2023-03-26T06:14:23.108Z,1.25
2023-03-26T06:16:54.415Z,1.48
2023-03-26T06:19:25.123Z,1.50
2023-03-26T06:21:56.250Z,1.80
2023-03-26T06:24:27.009Z,1.60
2023-03-26T06:27:00.914Z,1.48
2023-03-26T06:29:31.600Z,1.90
2023-03-26T06:32:16.249Z,1.60
2023-03-26T06:34:51.081Z,1.35
2023-03-26T06:37:21.836Z,1.40
2023-03-26T06:39:52.448Z,2.08
2023-03-26T06:43:06.987Z,2.15
2023-03-26T06:45:16.477Z,1.42
2023-03-26T06:47:47.598Z,1.50
2023-03-26T06:50:19.003Z,1.83
2023-03-26T06:52:54.869Z,1.58
2023-03-26T06:55:27.116Z,2.47
2023-03-26T06:58:00.413Z,1.55
2023-03-26T07:00:31.932Z,1.63
2023-03-26T07:03:02.926Z,2.00
2023-03-26T07:05:34.952Z,1.67
2023-03-26T07:08:05.947Z,1.63
2023-03-26T07:10:38.625Z,1.30
2023-03-26T07:13:09.304Z,1.80
2023-03-26T07:15:41.484Z,1.80
2023-03-26T07:18:12.819Z,1.42
2023-03-26T07:20:45.748Z,1.50
2023-03-26T07:23:22.310Z,2.10
2023-03-26T07:25:56.471Z,1.58
2023-03-26T07:28:37.290Z,1.67
2023-03-26T07:31:36.799Z,1.88
2023-03-26T07:34:33.526Z,1.70
2023-03-26T07:37:25.721Z,2.30
2023-03-26T07:40:06.623Z,1.90
2023-03-26T07:42:49.631Z,3.13
2023-03-26T07:45:36.193Z,2.38
2023-03-26T07:48:11.911Z,1.60
2023-03-26T07:50:44.780Z,2.05
2023-03-26T07:53:17.984Z,1.77
2023-03-26T07:56:22.248Z,1.45
2023-03-26T07:59:26.053Z,1.40
2023-03-26T08:02:24.856Z,1.42
2023-03-26T08:04:56.960Z,1.30
2023-03-26T08:07:47.480Z,1.70
2023-03-26T08:10:41.467Z,1.80
2023-03-26T08:13:56.369Z,1.42
2023-03-26T08:17:03.740Z,2.78
2023-03-26T08:20:00.580Z,1.48
2023-03-26T08:23:00.283Z,1.38
2023-03-26T08:25:52.286Z,1.38
2023-03-26T08:28:38.418Z,1.50
2023-03-26T08:31:12.994Z,1.47
2023-03-26T08:33:45.723Z,1.42
2023-03-26T08:36:16.507Z,2.33
2023-03-26T08:38:47.120Z,1.70
2023-03-26T08:41:38.135Z,1.30
2023-03-26T08:44:26.059Z,1.67
2023-03-26T08:47:15.603Z,1.13
2023-03-26T08:50:05.210Z,1.27
2023-03-26T08:53:05.772Z,1.20
2023-03-26T08:56:23.742Z,1.33
2023-03-26T08:59:21.342Z,1.40
2023-03-26T09:01:54.915Z,1.70
2023-03-26T09:04:52.664Z,1.50
2023-03-26T09:07:59.409Z,1.40
2023-03-26T09:10:43.673Z,1.75
2023-03-26T09:13:50.905Z,1.20
2023-03-26T09:16:48.600Z,1.43
2023-03-26T09:19:57.283Z,1.55
2023-03-26T09:23:10.936Z,1.33
2023-03-26T09:26:16.658Z,1.60
2023-03-26T09:28:54.653Z,1.70
2023-03-26T09:32:02.180Z,1.70
2023-03-26T09:34:55.556Z,1.67
2023-03-26T09:37:57.095Z,1.20
2023-03-26T09:40:31.647Z,1.35
2023-03-26T09:43:39.396Z,1.30
2023-03-26T09:46:38.063Z,1.42
2023-03-26T09:49:11.756Z,1.70
2023-03-26T09:52:09.710Z,1.40
2023-03-26T09:55:09.929Z,1.65
2023-03-26T09:57:43.755Z,1.20
2023-03-26T10:00:41.285Z,1.30
2023-03-26T10:03:17.866Z,1.80
2023-03-26T10:05:53.376Z,1.75
2023-03-26T10:08:32.760Z,2.00
2023-03-26T10:11:15.319Z,1.48
2023-03-26T10:14:15.270Z,1.85
2023-03-26T10:17:08.346Z,1.75
2023-03-26T10:19:48.404Z,1.55
2023-03-26T10:22:30.700Z,2.22
2023-03-26T10:25:36.454Z,1.65
2023-03-26T10:28:28.258Z,2.60
2023-03-26T10:31:26.568Z,2.10
2023-03-26T10:34:29.434Z,2.17
2023-03-26T10:37:33.614Z,1.85
2023-03-26T10:40:26.026Z,2.45
2023-03-26T10:43:17.951Z,1.98
2023-03-26T10:46:16.029Z,1.80
2023-03-26T10:49:18.679Z,2.05
2023-03-26T10:52:03.137Z,2.03
2023-03-26T10:54:52.185Z,2.50
2023-03-26T10:57:40.273Z,2.20
2023-03-26T11:00:37.543Z,2.35
2023-03-26T11:03:25.773Z,2.83
2023-03-26T11:06:33.843Z,2.25
2023-03-26T11:11:49.060Z,2.88
2023-03-26T11:14:49.086Z,2.28
2023-03-26T11:17:40.198Z,2.10
2023-03-26T11:20:36.260Z,2.97
2023-03-26T11:23:29.362Z,2.72
2023-03-26T11:26:26.053Z,2.45
2023-03-26T11:29:31.393Z,2.73
2023-03-26T11:32:09.165Z,3.15
2023-03-26T11:34:58.279Z,2.85
2023-03-26T11:37:55.799Z,2.70
2023-03-26T11:40:38.082Z,2.08
2023-03-26T11:43:13.709Z,2.95
2023-03-26T11:45:49.180Z,2.92
2023-03-26T11:48:34.053Z,3.03
2023-03-26T11:51:30.011Z,3.28
2023-03-26T11:54:01.685Z,3.28
2023-03-26T11:57:04.864Z,2.80
2023-03-26T11:59:56.624Z,2.80
2023-03-26T12:02:40.491Z,2.45
2023-03-26T12:05:19.625Z,2.85
2023-03-26T12:08:00.388Z,3.00
2023-03-26T12:10:41.542Z,3.22
2023-03-26T12:13:25.353Z,2.53
2023-03-26T12:16:02.621Z,2.90
2023-03-26T12:18:34.139Z,3.13
2023-03-26T12:21:16.917Z,3.17
2023-03-26T12:23:55.099Z,2.85
2023-03-26T12:26:44.797Z,2.83
2023-03-26T12:29:18.497Z,2.60
2023-03-26T12:32:06.801Z,3.30
2023-03-26T12:34:41.885Z,2.67
2023-03-26T12:37:49.964Z,3.00
2023-03-26T12:40:36.641Z,3.15
2023-03-26T12:44:54.654Z,3.38
2023-03-26T12:47:54.319Z,3.55
2023-03-26T12:49:30.505Z,2.60
2023-03-26T12:52:23.797Z,3.75
2023-03-26T12:55:20.247Z,3.40
2023-03-26T12:58:23.777Z,3.63
2023-03-26T13:01:04.312Z,3.00
2023-03-26T13:03:45.940Z,3.40
2023-03-26T13:06:19.187Z,3.28
2023-03-26T13:09:07.331Z,3.30
2023-03-26T13:12:15.947Z,3.40
2023-03-26T13:14:59.395Z,3.30
2023-03-26T13:17:33.215Z,3.22
2023-03-26T13:20:47.373Z,3.50
2023-03-26T13:23:17.646Z,3.75
2023-03-26T13:26:19.337Z,3.70
2023-03-26T13:28:54.509Z,4.47
2023-03-26T13:32:03.738Z,3.75
2023-03-26T13:35:16.193Z,3.20
2023-03-26T13:38:08.170Z,3.72
2023-03-26T13:41:09.113Z,3.60
2023-03-26T13:44:04.088Z,3.85
2023-03-26T13:46:40.984Z,3.55
2023-03-26T13:49:17.312Z,3.10
2023-03-26T13:52:26.300Z,2.90
2023-03-26T13:55:21.634Z,3.65
2023-03-26T13:58:21.452Z,2.75
2023-03-26T14:01:18.733Z,3.35
2023-03-26T14:03:55.370Z,3.35
2023-03-26T14:09:26.793Z,3.83
2023-03-26T14:12:00.233Z,3.28
2023-03-26T14:14:46.001Z,3.75
2023-03-26T14:17:30.709Z,3.38
2023-03-26T14:20:14.515Z,3.05
2023-03-26T14:23:11.332Z,3.67
2023-03-26T14:26:15.015Z,4.40
2023-03-26T14:29:13.733Z,3.35
2023-03-26T14:32:24.584Z,5.75
2023-03-26T14:35:06.539Z,4.22
2023-03-26T14:38:00.573Z,5.30
2023-03-26T14:40:44.236Z,4.57
2023-03-26T14:43:36.287Z,4.82
2023-03-26T14:46:28.358Z,5.38
2023-03-26T14:49:15.163Z,4.22
2023-03-26T14:51:45.876Z,4.15
2023-03-26T14:54:29.322Z,4.72
2023-03-26T14:57:20.922Z,4.68
2023-03-26T15:00:18.285Z,4.72
2023-03-26T15:03:15.107Z,4.60
2023-03-26T15:05:51.192Z,4.43
2023-03-26T15:09:09.008Z,4.55
2023-03-26T15:11:51.569Z,4.22
2023-03-26T15:14:48.024Z,4.43
2023-03-26T15:17:41.560Z,4.47
2023-03-26T15:20:39.669Z,5.32
2023-03-26T15:23:44.546Z,5.20
2023-03-26T15:26:43.638Z,4.75
2023-03-26T15:29:17.116Z,5.45
2023-03-26T15:32:24.363Z,5.15
2023-03-26T15:35:17.045Z,4.25
2023-03-26T15:38:14.780Z,4.80
2023-03-26T15:40:56.306Z,3.97
2023-03-26T15:43:35.099Z,4.78
2023-03-26T15:46:12.356Z,4.95
2023-03-26T15:49:16.745Z,5.20
2023-03-26T15:52:19.616Z,5.03
2023-03-26T15:54:59.663Z,5.60
2023-03-26T15:57:36.510Z,5.00
2023-03-26T16:00:26.646Z,5.43
2023-03-26T16:03:14.099Z,5.07
2023-03-26T16:06:08.999Z,5.45
2023-03-26T16:09:09.591Z,4.57
2023-03-26T16:11:52.912Z,4.90
2023-03-26T16:14:38.586Z,4.47
2023-03-26T16:17:15.418Z,5.22
2023-03-26T16:20:12.294Z,5.20
2023-03-26T16:22:56.497Z,4.82
2023-03-26T16:25:33.772Z,4.43
2023-03-26T16:28:36.880Z,4.90
2023-03-26T16:31:37.178Z,4.20
2023-03-26T16:34:16.241Z,5.72
2023-03-26T16:36:52.007Z,5.40
2023-03-26T16:39:27.470Z,6.03
2023-03-26T16:42:06.796Z,5.03
2023-03-26T16:45:21.106Z,5.50
2023-03-26T16:48:25.081Z,4.80
2023-03-26T16:51:06.197Z,4.72
2023-03-26T16:53:58.717Z,5.47
2023-03-26T16:56:55.418Z,4.88
2023-03-26T17:00:06.252Z,4.87
2023-03-26T17:03:14.737Z,4.57
2023-03-26T17:05:59.993Z,5.40
2023-03-26T17:08:49.437Z,4.97
2023-03-26T17:11:29.019Z,5.05
2023-03-26T17:14:29.822Z,5.75
2023-03-26T17:17:06.921Z,4.50
2023-03-26T17:20:01.105Z,5.05
2023-03-26T17:22:40.859Z,5.43
2023-03-26T17:25:22.369Z,4.78
2023-03-26T17:28:18.266Z,5.25
2023-03-26T17:31:18.086Z,5.15
2023-03-26T17:33:49.601Z,4.97
2023-03-26T17:36:32.830Z,4.80
2023-03-26T17:39:24.104Z,4.85
2023-03-26T17:41:58.552Z,5.70
2023-03-26T17:45:01.330Z,5.53
2023-03-26T17:47:51.845Z,5.60
2023-03-26T17:50:28.744Z,5.60
2023-03-26T17:53:03.038Z,4.90
2023-03-26T17:55:40.414Z,5.18
2023-03-26T17:58:25.573Z,5.35
2023-03-26T18:01:24.823Z,5.13
2023-03-26T18:04:00.172Z,5.93
2023-03-26T18:06:49.891Z,5.45
2023-03-26T18:09:42.261Z,5.07
2023-03-26T18:12:33.631Z,4.55
2023-03-26T18:15:37.846Z,4.75
2023-03-26T18:18:20.152Z,5.05
2023-03-26T18:20:53.976Z,4.97
2023-03-26T18:23:28.315Z,4.72
2023-03-26T18:26:22.703Z,4.82
2023-03-26T18:29:11.144Z,4.75
2023-03-26T18:31:45.650Z,5.32
2023-03-26T18:34:22.157Z,5.60
2023-03-26T18:37:20.067Z,5.07
2023-03-26T18:40:17.527Z,5.53
2023-03-26T18:42:53.591Z,5.05
2023-03-26T18:45:31.397Z,5.47
2023-03-26T18:48:25.944Z,5.78
2023-03-26T18:51:09.331Z,5.30
2023-03-26T18:53:53.626Z,5.30
2023-03-26T18:56:32.644Z,5.53
2023-03-26T18:59:06.211Z,4.55
2023-03-26T19:01:39.829Z,4.50
2023-03-26T19:04:13.594Z,5.57
2023-03-26T19:06:46.115Z,4.38
2023-03-26T19:09:30.805Z,4.95
2023-03-26T19:12:32.486Z,4.38
2023-03-26T19:15:19.128Z,5.50
2023-03-26T19:17:55.415Z,5.47
2023-03-26T19:20:32.258Z,5.72
2023-03-26T19:25:40.430Z,4.88
2023-03-26T19:28:20.801Z,4.22
2023-03-26T19:31:00.515Z,5.10
2023-03-26T19:33:39.084Z,5.05
2023-03-26T19:36:27.279Z,5.30
2023-03-26T19:39:03.377Z,5.18
2023-03-26T19:41:40.840Z,5.78
2023-03-26T19:44:31.435Z,5.78
2023-03-26T19:47:08.502Z,5.65
2023-03-26T19:49:54.802Z,5.82
2023-03-26T19:52:31.253Z,5.65
2023-03-26T19:57:40.016Z,5.68
2023-03-26T20:00:16.785Z,5.47
2023-03-26T20:02:48.567Z,4.75
2023-03-26T20:05:27.813Z,5.90
2023-03-26T20:08:01.459Z,4.47
2023-03-26T20:10:31.830Z,4.93
2023-03-26T20:13:03.222Z,4.72
2023-03-26T20:15:36.794Z,6.30
2023-03-26T20:18:07.163Z,6.05
2023-03-26T20:20:38.134Z,5.40
2023-03-26T20:23:21.691Z,4.93
2023-03-26T20:25:55.922Z,5.55
2023-03-26T20:28:27.716Z,5.75
2023-03-26T20:30:59.841Z,5.60
2023-03-26T20:33:30.746Z,5.13
2023-03-26T20:36:02.037Z,6.28
2023-03-26T20:38:39.525Z,5.68
2023-03-26T20:41:15.483Z,5.25
2023-03-26T20:43:46.355Z,6.03
2023-03-26T20:46:23.509Z,5.90
2023-03-26T20:49:01.951Z,6.65
2023-03-26T20:51:32.182Z,5.90
2023-03-26T20:54:02.490Z,6.00
2023-03-26T20:56:33.244Z,6.45
2023-03-26T20:59:11.201Z,6.60
2023-03-26T21:01:42.392Z,7.03
2023-03-26T21:04:13.734Z,6.28
2023-03-26T21:06:47.119Z,7.00
2023-03-26T21:09:20.266Z,6.70
2023-03-26T21:12:10.124Z,6.65
2023-03-26T21:14:43.717Z,6.85
2023-03-26T21:17:21.221Z,6.25
2023-03-26T21:19:57.069Z,6.22
2023-03-26T21:22:48.635Z,6.63
2023-03-26T21:25:38.419Z,6.68
2023-03-26T21:28:41.893Z,5.72
2023-03-26T21:31:23.233Z,6.45
2023-03-26T21:33:54.429Z,5.38
2023-03-26T21:36:25.655Z,5.60
2023-03-26T21:38:56.504Z,5.80
2023-03-26T21:41:27.268Z,6.35
2023-03-26T21:43:57.650Z,6.03
2023-03-26T21:46:29.096Z,6.65
2023-03-26T21:49:00.950Z,5.78
2023-03-26T21:51:33.755Z,6.20
2023-03-26T21:54:04.627Z,7.38
2023-03-26T21:57:00.612Z,6.70
2023-03-26T22:00:16.559Z,6.50
2023-03-26T22:03:06.209Z,5.95
2023-03-26T22:05:50.125Z,6.65
2023-03-26T22:08:33.226Z,5.97
2023-03-26T22:11:04.133Z,6.80
2023-03-26T22:13:38.433Z,6.80
2023-03-26T22:16:11.141Z,6.68
2023-03-26T22:18:41.914Z,6.07
2023-03-26T22:21:12.661Z,6.95
2023-03-26T22:23:43.630Z,6.38
2023-03-26T22:26:14.285Z,5.97
2023-03-26T22:28:45.126Z,6.15
2023-03-26T22:31:15.672Z,5.78
2023-03-26T22:33:46.501Z,5.65
2023-03-26T22:36:23.373Z,6.05
2023-03-26T22:38:58.807Z,5.80
2023-03-26T22:41:32.535Z,5.70
2023-03-26T22:44:16.747Z,5.57
2023-03-26T22:46:54.457Z,5.70
2023-03-26T22:49:27.803Z,5.20
2023-03-26T22:51:59.121Z,5.68
2023-03-26T22:54:32.301Z,4.70
2023-03-26T22:57:03.126Z,4.72
2023-03-26T22:59:33.956Z,4.82
2023-03-26T23:02:04.706Z,4.57
2023-03-26T23:04:35.638Z,5.47
2023-03-26T23:07:07.429Z,5.75
2023-03-26T23:09:38.340Z,4.80
2023-03-26T23:12:09.352Z,4.18
2023-03-26T23:14:39.681Z,4.18
2023-03-26T23:17:16.595Z,4.07
2023-03-26T23:19:48.512Z,4.05
2023-03-26T23:22:19.409Z,4.25
2023-03-26T23:24:51.464Z,3.63
2023-03-26T23:27:23.702Z,3.95
2023-03-26T23:29:54.883Z,4.47
2023-03-26T23:32:27.200Z,3.90
2023-03-26T23:34:58.032Z,3.67
2023-03-26T23:37:31.436Z,4.10
2023-03-26T23:40:02.544Z,4.50
2023-03-26T23:42:33.643Z,3.60
2023-03-26T23:45:04.976Z,4.28
2023-03-26T23:47:36.469Z,3.83
2023-03-26T23:50:08.516Z,3.95
2023-03-26T23:52:39.814Z,4.15
2023-03-26T23:55:10.876Z,4.47
2023-03-26T23:57:42.700Z,4.40
